createdAt,value
2023-04-22T00:00:14.295Z,7.08
2023-04-22T00:02:41.532Z,7.10
2023-04-22T00:05:12.877Z,6.99
2023-04-22T00:07:42.454Z,6.94
2023-04-22T00:10:12.099Z,6.85
2023-04-22T00:12:39.509Z,6.86
2023-04-22T00:15:07.294Z,6.74
2023-04-22T00:17:34.537Z,6.46
2023-04-22T00:20:01.540Z,6.48
2023-04-22T00:22:28.456Z,6.41
2023-04-22T00:24:55.581Z,6.42
2023-04-22T00:27:22.611Z,6.39
2023-04-22T00:29:49.379Z,6.35
2023-04-22T00:32:16.124Z,6.34
2023-04-22T00:34:42.837Z,6.33
2023-04-22T00:37:09.720Z,6.35
2023-04-22T00:39:39.181Z,6.34
2023-04-22T00:42:07.269Z,6.42
2023-04-22T00:44:35.458Z,6.57
2023-04-22T00:47:02.297Z,6.69
2023-04-22T00:49:29.122Z,6.77
2023-04-22T00:51:56.032Z,6.77
2023-04-22T00:54:22.809Z,6.77
2023-04-22T00:56:49.596Z,6.79
2023-04-22T00:59:16.556Z,6.63
2023-04-22T01:01:43.542Z,6.57
2023-04-22T01:04:12.150Z,6.69
2023-04-22T01:06:40.580Z,6.76
2023-04-22T01:09:07.484Z,6.71
2023-04-22T01:11:35.602Z,6.72
2023-04-22T01:14:02.704Z,6.73
2023-04-22T01:16:30.759Z,6.51
2023-04-22T01:18:57.525Z,6.48
2023-04-22T01:21:24.717Z,6.53
2023-04-22T01:23:51.621Z,6.54
2023-04-22T01:26:18.354Z,6.44
2023-04-22T01:28:45.198Z,6.34
2023-04-22T01:31:12.113Z,6.29
2023-04-22T01:33:38.990Z,6.30
2023-04-22T01:36:06.038Z,6.17
2023-04-22T01:38:33.863Z,6.14
2023-04-22T01:41:02.033Z,6.08
2023-04-22T01:43:30.313Z,5.98
2023-04-22T01:45:57.305Z,5.93
2023-04-22T01:48:24.118Z,5.96
2023-04-22T01:50:50.905Z,5.89
2023-04-22T01:53:17.629Z,5.97
2023-04-22T01:55:44.800Z,5.96
2023-04-22T01:58:13.158Z,5.97
2023-04-22T02:00:40.883Z,6.01
2023-04-22T02:03:07.799Z,5.98
2023-04-22T02:05:38.984Z,5.86
2023-04-22T02:08:06.035Z,5.94
2023-04-22T02:10:32.772Z,6.07
2023-04-22T02:13:00.169Z,6.27
2023-04-22T02:15:26.897Z,6.14
2023-04-22T02:17:54.258Z,6.12
2023-04-22T02:20:21.066Z,6.23
2023-04-22T02:22:47.927Z,6.32
2023-04-22T02:25:14.697Z,6.27
2023-04-22T02:27:42.422Z,6.32
2023-04-22T02:30:09.587Z,6.40
2023-04-22T02:32:38.347Z,6.39
2023-04-22T02:35:05.880Z,6.44
2023-04-22T02:37:33.432Z,6.49
2023-04-22T02:40:00.213Z,6.49
2023-04-22T02:42:27.164Z,6.35
2023-04-22T02:44:55.267Z,6.10
2023-04-22T02:47:23.428Z,6.19
2023-04-22T02:49:50.232Z,6.02
2023-04-22T02:52:17.533Z,5.86
2023-04-22T02:54:44.283Z,5.86
2023-04-22T02:57:11.052Z,6.03
2023-04-22T02:59:38.108Z,6.03
2023-04-22T03:02:06.842Z,5.80
2023-04-22T03:05:03.546Z,5.79
2023-04-22T03:07:30.660Z,5.82
2023-04-22T03:09:57.705Z,5.83
2023-04-22T03:12:24.567Z,5.89
2023-04-22T03:14:52.186Z,6.03
2023-04-22T03:17:20.053Z,6.02
2023-04-22T03:19:47.462Z,5.96
2023-04-22T03:22:14.357Z,6.03
2023-04-22T03:24:41.198Z,5.97
2023-04-22T03:27:11.834Z,5.94
2023-04-22T03:29:39.729Z,6.10
2023-04-22T03:32:06.892Z,6.22
2023-04-22T03:34:37.066Z,6.38
2023-04-22T03:37:05.449Z,6.39
2023-04-22T03:39:52.448Z,6.32
2023-04-22T03:42:19.328Z,6.34
2023-04-22T03:44:46.170Z,6.44
2023-04-22T03:47:14.156Z,6.51
2023-04-22T03:49:45.872Z,6.57
2023-04-22T03:52:12.965Z,6.61
2023-04-22T03:54:43.538Z,6.63
2023-04-22T03:57:10.433Z,6.72
2023-04-22T03:59:38.815Z,6.97
2023-04-22T04:02:07.128Z,7.00
2023-04-22T04:04:34.458Z,6.98
2023-04-22T04:07:01.641Z,7.02
2023-04-22T04:09:28.603Z,7.16
2023-04-22T04:11:56.254Z,7.11
2023-04-22T04:14:23.073Z,7.14
2023-04-22T04:16:52.040Z,7.09
2023-04-22T04:19:30.167Z,7.00
2023-04-22T04:21:57.048Z,6.98
2023-04-22T04:24:25.319Z,7.02
2023-04-22T04:26:57.455Z,7.09
2023-04-22T04:29:29.238Z,7.09
2023-04-22T04:32:04.190Z,7.20
2023-04-22T04:34:33.880Z,7.92
2023-04-22T04:37:02.256Z,8.58
2023-04-22T04:39:35.818Z,9.00
2023-04-22T04:42:03.431Z,9.12
2023-04-22T04:44:32.051Z,9.38
2023-04-22T04:46:59.458Z,9.50
2023-04-22T04:49:30.070Z,9.76
2023-04-22T04:51:58.335Z,10.04
2023-04-22T04:54:26.047Z,10.36
2023-04-22T04:56:52.806Z,10.81
2023-04-22T04:59:19.656Z,10.99
2023-04-22T05:01:47.822Z,10.76
2023-04-22T05:04:14.989Z,10.42
2023-04-22T05:06:43.036Z,10.12
2023-04-22T05:09:10.027Z,10.00
2023-04-22T05:11:36.814Z,10.53
2023-04-22T05:14:09.187Z,11.11
2023-04-22T05:16:39.166Z,11.84
2023-04-22T05:19:07.949Z,12.36
2023-04-22T05:21:35.484Z,12.36
2023-04-22T05:24:02.266Z,12.51
2023-04-22T05:26:29.278Z,12.29
2023-04-22T05:28:56.292Z,12.10
2023-04-22T05:31:23.170Z,12.04
2023-04-22T05:33:50.406Z,11.82
2023-04-22T05:36:17.412Z,11.84
2023-04-22T05:38:45.555Z,12.04
2023-04-22T05:41:12.390Z,12.56
2023-04-22T05:43:39.298Z,13.36
2023-04-22T05:46:09.505Z,13.66
2023-04-22T05:48:37.981Z,13.61
2023-04-22T05:51:07.891Z,13.50
2023-04-22T05:53:35.544Z,13.29
2023-04-22T05:56:02.627Z,13.18
2023-04-22T05:58:30.172Z,13.64
2023-04-22T06:01:01.560Z,14.38
2023-04-22T06:04:05.681Z,14.93
2023-04-22T06:06:33.547Z,15.42
2023-04-22T06:09:00.359Z,15.64
2023-04-22T06:11:27.817Z,15.58
2023-04-22T06:13:54.713Z,15.90
2023-04-22T06:16:21.817Z,16.00
2023-04-22T06:18:48.593Z,16.18
2023-04-22T06:21:15.482Z,16.42
2023-04-22T06:23:42.316Z,16.11
2023-04-22T06:26:09.114Z,15.99
2023-04-22T06:28:36.494Z,15.96
2023-04-22T06:31:07.095Z,15.85
2023-04-22T06:33:33.928Z,15.94
2023-04-22T06:36:04.428Z,16.01
2023-04-22T06:38:31.379Z,15.76
2023-04-22T06:41:27.396Z,16.28
2023-04-22T06:43:58.025Z,16.89
2023-04-22T06:46:50.152Z,17.37
2023-04-22T06:49:37.990Z,17.50
2023-04-22T06:52:19.514Z,17.34
2023-04-22T06:54:46.720Z,17.38
2023-04-22T06:57:13.752Z,17.37
2023-04-22T06:59:40.874Z,17.12
2023-04-22T07:02:08.133Z,17.01
2023-04-22T07:04:36.964Z,16.86
2023-04-22T07:07:04.677Z,16.76
2023-04-22T07:09:33.242Z,16.49
2023-04-22T07:12:00.677Z,16.21
2023-04-22T07:14:31.750Z,15.86
2023-04-22T07:16:59.396Z,15.70
2023-04-22T07:19:26.448Z,16.19
2023-04-22T07:21:53.583Z,16.99
2023-04-22T07:24:20.374Z,17.61
2023-04-22T07:26:47.081Z,17.79
2023-04-22T07:29:13.810Z,17.85
2023-04-22T07:31:40.617Z,18.00
2023-04-22T07:34:08.621Z,18.28
2023-04-22T07:36:35.413Z,18.19
2023-04-22T07:39:02.105Z,18.17
2023-04-22T07:41:28.994Z,18.26
2023-04-22T07:43:56.003Z,18.28
2023-04-22T07:46:23.188Z,18.81
2023-04-22T07:48:50.232Z,19.09
2023-04-22T07:51:16.959Z,18.96
2023-04-22T07:53:44.157Z,18.40
2023-04-22T07:56:10.928Z,18.59
2023-04-22T07:58:37.816Z,18.62
2023-04-22T08:01:04.704Z,18.49
2023-04-22T08:03:32.202Z,18.91
2023-04-22T08:05:59.466Z,19.43
2023-04-22T08:08:26.236Z,19.71
2023-04-22T08:10:53.022Z,19.70
2023-04-22T08:13:20.052Z,19.21
2023-04-22T08:15:46.822Z,19.10
2023-04-22T08:18:13.557Z,18.96
2023-04-22T08:20:40.286Z,18.77
2023-04-22T08:23:07.119Z,18.94
2023-04-22T08:25:34.187Z,19.09
2023-04-22T08:28:00.994Z,19.28
2023-04-22T08:30:27.770Z,19.29
2023-04-22T08:32:54.537Z,19.28
2023-04-22T08:35:21.294Z,19.84
2023-04-22T08:37:48.073Z,20.19
2023-04-22T08:40:15.005Z,20.48
2023-04-22T08:42:42.074Z,20.38
2023-04-22T08:45:09.164Z,20.26
2023-04-22T08:47:37.895Z,20.43
2023-04-22T08:50:05.837Z,20.76
2023-04-22T08:52:33.146Z,20.95
2023-04-22T08:55:00.255Z,20.93
2023-04-22T08:57:27.145Z,20.92
2023-04-22T08:59:55.694Z,20.65
2023-04-22T09:02:23.609Z,20.70
2023-04-22T09:04:51.364Z,20.61
2023-04-22T09:07:25.233Z,20.53
2023-04-22T09:09:53.295Z,20.63
2023-04-22T09:12:20.063Z,20.47
2023-04-22T09:14:46.953Z,20.82
2023-04-22T09:17:18.008Z,21.05
2023-04-22T09:19:45.233Z,20.71
2023-04-22T09:22:14.230Z,20.79
2023-04-22T09:24:43.944Z,21.21
2023-04-22T09:27:10.735Z,21.22
2023-04-22T09:29:37.831Z,21.06
2023-04-22T09:32:11.289Z,20.99
2023-04-22T09:34:51.733Z,20.76
2023-04-22T09:37:36.054Z,20.92
2023-04-22T09:40:08.524Z,21.53
2023-04-22T09:42:35.335Z,20.86
2023-04-22T09:45:02.375Z,20.41
2023-04-22T09:47:35.548Z,20.33
2023-04-22T09:50:03.810Z,19.96
2023-04-22T09:52:31.457Z,19.86
2023-04-22T09:54:58.232Z,19.73
2023-04-22T09:57:25.029Z,19.69
2023-04-22T09:59:52.457Z,20.29
2023-04-22T10:02:19.407Z,20.78
2023-04-22T10:04:47.376Z,20.54
2023-04-22T10:07:14.729Z,20.27
2023-04-22T10:09:41.718Z,20.12
2023-04-22T10:12:09.285Z,19.82
2023-04-22T10:14:36.499Z,19.61
2023-04-22T10:17:04.352Z,19.28
2023-04-22T10:19:33.458Z,19.38
2023-04-22T10:22:02.130Z,19.73
2023-04-22T10:24:29.839Z,20.42
2023-04-22T10:26:57.589Z,20.57
2023-04-22T10:29:25.794Z,20.57
2023-04-22T10:32:03.652Z,20.51
2023-04-22T10:34:34.477Z,20.55
2023-04-22T10:37:06.257Z,20.59
2023-04-22T10:39:33.295Z,20.46
2023-04-22T10:42:05.040Z,20.18
2023-04-22T10:44:51.261Z,20.00
2023-04-22T10:47:34.733Z,20.25
2023-04-22T10:50:11.753Z,20.40
2023-04-22T10:52:39.425Z,20.46
2023-04-22T10:55:06.338Z,20.40
2023-04-22T10:57:57.763Z,20.36
2023-04-22T11:00:35.366Z,20.13
2023-04-22T11:03:05.702Z,19.81
2023-04-22T11:05:33.630Z,19.77
2023-04-22T11:08:20.089Z,20.17
2023-04-22T11:10:50.664Z,20.03
2023-04-22T11:13:18.950Z,19.53
2023-04-22T11:15:50.405Z,19.23
2023-04-22T11:18:22.752Z,18.95
2023-04-22T11:20:50.130Z,18.55
2023-04-22T11:23:26.039Z,18.52
2023-04-22T11:26:00.336Z,18.60
2023-04-22T11:28:27.572Z,18.49
2023-04-22T11:31:09.290Z,18.20
2023-04-22T11:33:37.833Z,18.16
2023-04-22T11:36:05.207Z,18.21
2023-04-22T11:38:32.737Z,18.36
2023-04-22T11:40:59.591Z,18.44
2023-04-22T11:43:30.439Z,18.83
2023-04-22T11:45:57.618Z,19.49
2023-04-22T11:48:24.616Z,20.00
2023-04-22T11:51:11.183Z,20.16
2023-04-22T11:53:39.579Z,20.34
2023-04-22T11:56:07.191Z,20.02
2023-04-22T11:58:37.141Z,19.80
2023-04-22T12:01:03.957Z,19.92
2023-04-22T12:03:33.491Z,19.71
2023-04-22T12:06:02.489Z,19.52
2023-04-22T12:08:35.004Z,19.32
2023-04-22T12:11:03.555Z,19.40
2023-04-22T12:13:32.648Z,19.64
2023-04-22T12:16:19.967Z,19.59
2023-04-22T12:18:47.010Z,19.41
2023-04-22T12:21:14.740Z,19.22
2023-04-22T12:23:42.828Z,18.96
2023-04-22T12:26:09.866Z,18.81
2023-04-22T12:28:37.105Z,18.86
2023-04-22T12:31:04.296Z,18.80
2023-04-22T12:33:31.601Z,18.78
2023-04-22T12:35:58.747Z,19.10
2023-04-22T12:38:26.323Z,19.24
2023-04-22T12:40:54.204Z,19.33
2023-04-22T12:43:21.175Z,19.46
2023-04-22T12:45:48.054Z,19.80
2023-04-22T12:48:16.751Z,20.22
2023-04-22T12:50:43.655Z,20.60
2023-04-22T12:53:10.372Z,20.58
2023-04-22T12:55:37.282Z,20.34
2023-04-22T12:58:04.758Z,19.77
2023-04-22T13:00:31.825Z,19.47
2023-04-22T13:02:58.778Z,19.29
2023-04-22T13:05:25.719Z,18.91
2023-04-22T13:10:27.532Z,18.51
2023-04-22T13:12:58.466Z,18.68
2023-04-22T13:15:31.756Z,18.79
2023-04-22T13:17:59.118Z,18.62
2023-04-22T13:20:25.928Z,18.20
2023-04-22T13:22:53.560Z,18.01
2023-04-22T13:25:20.553Z,17.75
2023-04-22T13:27:47.530Z,18.02
2023-04-22T13:30:14.493Z,18.69
2023-04-22T13:32:41.836Z,19.32
2023-04-22T13:35:09.062Z,19.75
2023-04-22T13:37:36.252Z,20.28
2023-04-22T13:40:05.591Z,20.77
2023-04-22T13:42:32.702Z,20.94
2023-04-22T13:45:01.052Z,21.08
2023-04-22T13:47:28.282Z,21.51
2023-04-22T13:49:55.055Z,21.59
2023-04-22T13:52:21.820Z,21.55
2023-04-22T13:54:48.671Z,21.25
2023-04-22T13:57:15.401Z,20.81
2023-04-22T13:59:42.404Z,20.36
2023-04-22T14:02:09.541Z,19.64
2023-04-22T14:04:36.295Z,19.63
2023-04-22T14:07:03.449Z,20.02
2023-04-22T14:09:30.988Z,20.41
2023-04-22T14:11:58.077Z,21.00
2023-04-22T14:14:25.269Z,21.06
2023-04-22T14:16:52.247Z,21.14
2023-04-22T14:19:19.379Z,21.18
2023-04-22T14:21:46.586Z,21.23
2023-04-22T14:24:13.528Z,21.56
2023-04-22T14:26:40.639Z,21.81
2023-04-22T14:29:08.238Z,22.13
2023-04-22T14:31:35.056Z,22.28
2023-04-22T14:34:01.788Z,22.13
2023-04-22T14:36:29.420Z,21.87
2023-04-22T14:38:56.244Z,21.63
2023-04-22T14:41:23.327Z,21.86
2023-04-22T14:43:50.319Z,21.98
2023-04-22T14:46:17.074Z,21.84
2023-04-22T14:48:44.219Z,21.67
2023-04-22T14:51:11.070Z,21.50
2023-04-22T14:53:37.905Z,21.73
2023-04-22T14:56:04.874Z,21.76
2023-04-22T14:58:31.991Z,21.66
2023-04-22T15:00:59.364Z,21.74
2023-04-22T15:03:26.735Z,21.23
2023-04-22T15:05:54.636Z,20.61
2023-04-22T15:08:24.595Z,20.73
2023-04-22T15:10:51.648Z,20.78
2023-04-22T15:13:21.267Z,20.49
2023-04-22T15:15:48.028Z,20.29
2023-04-22T15:18:14.838Z,20.44
2023-04-22T15:20:41.723Z,21.01
2023-04-22T15:23:08.525Z,21.09
2023-04-22T15:25:35.604Z,21.20
2023-04-22T15:28:02.840Z,20.78
2023-04-22T15:30:29.966Z,20.24
2023-04-22T15:32:56.912Z,19.72
2023-04-22T15:35:24.097Z,19.20
2023-04-22T15:37:52.138Z,18.88
2023-04-22T15:40:19.243Z,18.52
2023-04-22T15:42:46.029Z,18.29
2023-04-22T15:45:12.894Z,18.13
2023-04-22T15:47:40.519Z,18.02
2023-04-22T15:50:08.309Z,17.91
2023-04-22T15:52:36.757Z,17.78
2023-04-22T15:55:07.213Z,17.53
2023-04-22T15:57:34.505Z,17.47
2023-04-22T16:00:10.858Z,17.34
2023-04-22T16:02:42.976Z,17.18
2023-04-22T16:05:11.075Z,17.25
2023-04-22T16:07:39.628Z,17.31
2023-04-22T16:10:07.409Z,17.21
2023-04-22T16:12:34.611Z,17.14
2023-04-22T16:15:01.629Z,16.98
2023-04-22T16:17:29.253Z,17.00
2023-04-22T16:19:56.036Z,16.97
2023-04-22T16:22:22.819Z,16.90
2023-04-22T16:24:50.026Z,16.92
2023-04-22T16:27:18.568Z,16.84
2023-04-22T16:29:45.544Z,16.85
2023-04-22T16:32:12.337Z,16.76
2023-04-22T16:34:39.166Z,16.68
2023-04-22T16:37:06.338Z,16.59
2023-04-22T16:39:33.425Z,16.53
2023-04-22T16:42:01.769Z,16.46
2023-04-22T16:44:28.762Z,16.46
2023-04-22T16:46:55.555Z,16.34
2023-04-22T16:49:22.318Z,16.18
2023-04-22T16:51:49.299Z,16.00
2023-04-22T16:54:16.148Z,15.99
2023-04-22T16:56:43.142Z,15.82
2023-04-22T16:59:09.897Z,15.55
2023-04-22T17:01:36.843Z,15.51
2023-04-22T17:04:03.717Z,15.42
2023-04-22T17:06:31.954Z,15.10
2023-04-22T17:08:59.388Z,14.94
2023-04-22T17:11:26.133Z,14.62
2023-04-22T17:13:53.084Z,14.42
2023-04-22T17:16:20.320Z,14.30
2023-04-22T17:18:47.331Z,14.13
2023-04-22T17:21:15.858Z,13.96
2023-04-22T17:23:42.623Z,13.76
2023-04-22T17:26:09.372Z,13.67
2023-04-22T17:28:36.088Z,13.50
2023-04-22T17:31:03.576Z,13.27
2023-04-22T17:33:30.774Z,12.91
2023-04-22T17:35:57.546Z,12.57
2023-04-22T17:38:24.376Z,12.39
2023-04-22T17:40:51.107Z,12.40
2023-04-22T17:43:18.543Z,12.45
2023-04-22T17:45:45.382Z,12.44
2023-04-22T17:48:12.572Z,12.39
2023-04-22T17:50:39.344Z,12.42
2023-04-22T17:53:06.255Z,12.34
2023-04-22T17:55:34.640Z,12.21
2023-04-22T17:58:02.479Z,12.24
2023-04-22T18:00:29.912Z,12.15
2023-04-22T18:02:56.910Z,12.16
2023-04-22T18:05:23.991Z,12.12
2023-04-22T18:07:50.936Z,12.09
2023-04-22T18:10:17.846Z,12.34
2023-04-22T18:12:46.453Z,12.13
2023-04-22T18:15:13.180Z,12.18
2023-04-22T18:17:41.394Z,12.26
2023-04-22T18:20:17.160Z,12.23
2023-04-22T18:22:49.101Z,12.15
2023-04-22T18:25:15.808Z,12.03
2023-04-22T18:27:42.944Z,11.84
2023-04-22T18:30:10.054Z,11.48
2023-04-22T18:32:37.503Z,11.48
2023-04-22T18:35:04.765Z,11.49
2023-04-22T18:37:33.758Z,11.59
2023-04-22T18:40:00.661Z,11.61
2023-04-22T18:42:27.463Z,11.68
2023-04-22T18:44:54.252Z,11.66
2023-04-22T18:47:21.198Z,11.49
2023-04-22T18:49:47.935Z,11.19
2023-04-22T18:52:16.533Z,11.03
2023-04-22T18:54:43.416Z,10.92
2023-04-22T18:57:11.580Z,10.88
2023-04-22T18:59:39.127Z,11.05
2023-04-22T19:02:06.046Z,11.11
2023-04-22T19:04:33.297Z,11.03
2023-04-22T19:07:00.348Z,11.16
2023-04-22T19:09:27.083Z,11.22
2023-04-22T19:11:53.985Z,11.33
2023-04-22T19:14:21.512Z,11.17
2023-04-22T19:16:48.248Z,10.88
2023-04-22T19:19:15.251Z,10.77
2023-04-22T19:21:42.111Z,10.60
2023-04-22T19:24:09.473Z,10.27
2023-04-22T19:26:36.239Z,10.22
2023-04-22T19:29:02.967Z,10.37
2023-04-22T19:31:30.214Z,10.24
2023-04-22T19:33:57.391Z,10.20
2023-04-22T19:36:24.137Z,10.16
2023-04-22T19:38:51.075Z,10.15
2023-04-22T19:41:18.039Z,10.19
2023-04-22T19:43:45.470Z,10.28
2023-04-22T19:46:12.216Z,10.22
2023-04-22T19:48:39.298Z,10.45
2023-04-22T19:51:06.244Z,10.69
2023-04-22T19:53:33.133Z,10.80
2023-04-22T19:55:59.919Z,10.72
2023-04-22T19:58:27.845Z,10.54
2023-04-22T20:00:55.022Z,10.05
2023-04-22T20:03:22.181Z,9.92
2023-04-22T20:05:49.686Z,9.77
2023-04-22T20:08:19.446Z,9.72
2023-04-22T20:10:48.634Z,9.71
2023-04-22T20:13:16.535Z,9.62
2023-04-22T20:15:43.927Z,9.57
2023-04-22T20:18:10.749Z,9.53
2023-04-22T20:20:45.794Z,9.59
2023-04-22T20:23:12.593Z,9.50
2023-04-22T20:25:41.720Z,9.44
2023-04-22T20:28:10.089Z,9.45
2023-04-22T20:30:37.144Z,9.54
2023-04-22T20:33:04.451Z,9.52
2023-04-22T20:35:31.647Z,9.55
2023-04-22T20:37:58.976Z,9.53
2023-04-22T20:40:25.851Z,9.55
2023-04-22T20:43:14.489Z,9.51
2023-04-22T20:45:41.289Z,9.49
2023-04-22T20:48:08.340Z,9.59
2023-04-22T20:50:35.522Z,9.63
2023-04-22T20:53:03.113Z,9.62
2023-04-22T20:55:30.976Z,9.86
2023-04-22T20:57:58.199Z,9.81
2023-04-22T21:00:24.986Z,9.87
2023-04-22T21:02:51.918Z,9.90
2023-04-22T21:05:19.256Z,9.86
2023-04-22T21:07:46.924Z,9.96
2023-04-22T21:10:14.140Z,9.97
2023-04-22T21:12:41.072Z,10.11
2023-04-22T21:15:08.821Z,10.14
2023-04-22T21:17:35.663Z,10.07
2023-04-22T21:20:03.735Z,10.01
2023-04-22T21:22:30.854Z,9.99
2023-04-22T21:24:57.908Z,9.92
2023-04-22T21:27:25.220Z,9.99
2023-04-22T21:29:52.412Z,9.97
2023-04-22T21:32:19.880Z,10.00
2023-04-22T21:34:46.814Z,10.00
2023-04-22T21:37:13.565Z,10.03
2023-04-22T21:39:40.410Z,9.93
2023-04-22T21:42:07.380Z,9.83
2023-04-22T21:44:35.679Z,9.86
2023-04-22T21:47:02.927Z,9.88
2023-04-22T21:49:29.741Z,9.93
2023-04-22T21:51:56.563Z,9.99
2023-04-22T21:54:23.304Z,10.00
2023-04-22T21:56:50.181Z,9.89
2023-04-22T21:59:16.907Z,9.85
2023-04-22T22:01:43.708Z,10.00
2023-04-22T22:04:13.122Z,9.97
2023-04-22T22:06:46.017Z,9.92
2023-04-22T22:09:13.924Z,9.85
2023-04-22T22:11:43.684Z,9.87
2023-04-22T22:14:10.426Z,9.89
2023-04-22T22:16:37.794Z,10.04
2023-04-22T22:19:04.812Z,10.15
2023-04-22T22:21:32.331Z,10.17
2023-04-22T22:23:59.068Z,10.26
2023-04-22T22:26:25.920Z,10.37
2023-04-22T22:28:52.838Z,10.43
2023-04-22T22:31:19.608Z,10.08
2023-04-22T22:33:46.416Z,9.91
2023-04-22T22:36:13.165Z,9.91
2023-04-22T22:38:40.055Z,9.84
2023-04-22T22:41:06.794Z,9.78
2023-04-22T22:43:33.923Z,9.77
2023-04-22T22:46:00.705Z,9.69
2023-04-22T22:48:27.906Z,9.78
2023-04-22T22:50:55.905Z,9.78
2023-04-22T22:53:23.158Z,9.84
2023-04-22T22:55:50.190Z,9.87
2023-04-22T22:58:17.018Z,9.87
2023-04-22T23:00:43.767Z,9.85
2023-04-22T23:03:11.144Z,9.85
2023-04-22T23:05:38.419Z,9.84
2023-04-22T23:08:06.320Z,9.80
2023-04-22T23:10:33.196Z,9.79
2023-04-22T23:12:59.955Z,9.78
2023-04-22T23:15:26.751Z,9.89
2023-04-22T23:17:53.546Z,9.94
2023-04-22T23:20:20.747Z,9.97
2023-04-22T23:22:47.570Z,10.01
2023-04-22T23:25:15.384Z,10.01
2023-04-22T23:27:42.262Z,9.92
2023-04-22T23:30:09.317Z,9.86
2023-04-22T23:32:40.967Z,9.80
2023-04-22T23:35:09.722Z,10.06
2023-04-22T23:37:37.180Z,9.83
2023-04-22T23:40:06.783Z,9.88
2023-04-22T23:42:33.625Z,10.01
2023-04-22T23:45:02.217Z,10.06
2023-04-22T23:47:30.904Z,9.90
2023-04-22T23:49:58.234Z,9.75
2023-04-22T23:52:25.358Z,9.79
2023-04-22T23:54:52.425Z,9.79
2023-04-22T23:57:19.728Z,9.60
2023-04-22T23:59:46.693Z,9.61
